createdAt,value
2022-08-15T00:00:00.598Z,997.06
2022-08-15T00:01:00.701Z,997.08
2022-08-15T00:02:00.578Z,997.04
2022-08-15T00:03:03.192Z,997.08
2022-08-15T00:04:05.335Z,997.03
2022-08-15T00:05:00.540Z,997.06
2022-08-15T00:06:00.531Z,997.07
2022-08-15T00:07:01.802Z,997.05
2022-08-15T00:08:00.623Z,997.03
2022-08-15T00:09:00.551Z,997.09
2022-08-15T00:10:00.490Z,997.09
2022-08-15T00:11:20.825Z,997.10
2022-08-15T00:12:01.471Z,997.11
2022-08-15T00:13:00.461Z,997.08
2022-08-15T00:14:02.307Z,997.06
2022-08-15T00:15:00.461Z,997.11
2022-08-15T00:16:00.436Z,997.09
2022-08-15T00:17:00.413Z,997.08
2022-08-15T00:18:00.404Z,997.09
2022-08-15T00:19:00.396Z,997.08
2022-08-15T00:20:00.423Z,997.05
2022-08-15T00:21:00.373Z,997.07
2022-08-15T00:22:00.362Z,997.01
2022-08-15T00:23:00.516Z,997.02
2022-08-15T00:24:00.342Z,997.00
2022-08-15T00:25:00.356Z,997.00
2022-08-15T00:26:00.319Z,996.99
2022-08-15T00:27:01.308Z,996.98
2022-08-15T00:28:00.300Z,996.97
2022-08-15T00:29:00.285Z,996.97
2022-08-15T00:30:00.278Z,996.91
2022-08-15T00:31:00.285Z,996.91
2022-08-15T00:32:00.250Z,996.90
2022-08-15T00:33:19.097Z,996.95
2022-08-15T00:34:01.236Z,996.94
2022-08-15T00:35:00.227Z,997.00
2022-08-15T00:36:51.018Z,996.97
2022-08-15T00:37:01.198Z,996.95
2022-08-15T00:38:13.322Z,996.97
2022-08-15T00:39:01.173Z,996.97
2022-08-15T00:40:00.242Z,996.94
2022-08-15T00:41:00.187Z,996.96
2022-08-15T00:42:00.140Z,996.92
2022-08-15T00:43:00.128Z,996.95
2022-08-15T00:44:00.119Z,996.94
2022-08-15T00:45:07.154Z,996.93
2022-08-15T00:46:01.121Z,996.91
2022-08-15T00:47:00.091Z,996.94
2022-08-15T00:48:00.080Z,996.89
2022-08-15T00:49:00.149Z,996.90
2022-08-15T00:50:01.528Z,996.92
2022-08-15T00:51:00.071Z,996.93
2022-08-15T00:52:00.045Z,996.85
2022-08-15T00:53:00.062Z,996.87
2022-08-15T00:54:00.019Z,996.85
2022-08-15T00:55:00.012Z,996.87
2022-08-15T00:56:00.014Z,996.84
2022-08-15T00:56:59.983Z,996.81
2022-08-15T00:58:03.390Z,996.81
2022-08-15T00:58:59.953Z,996.82
2022-08-15T01:00:00.943Z,996.81
2022-08-15T01:01:01.182Z,996.83
2022-08-15T01:02:01.353Z,996.82
2022-08-15T01:02:59.914Z,996.79
2022-08-15T01:03:59.935Z,996.78
2022-08-15T01:05:02.067Z,996.78
2022-08-15T01:05:59.884Z,996.73
2022-08-15T01:06:59.870Z,996.73
2022-08-15T01:07:59.868Z,996.70
2022-08-15T01:08:59.847Z,996.69
2022-08-15T01:09:59.857Z,996.71
2022-08-15T01:11:02.883Z,996.67
2022-08-15T01:12:00.838Z,996.65
2022-08-15T01:12:59.806Z,996.66
2022-08-15T01:14:03.421Z,996.65
2022-08-15T01:15:00.806Z,996.67
2022-08-15T01:15:59.778Z,996.71
2022-08-15T01:16:59.790Z,996.66
2022-08-15T01:17:59.750Z,996.65
2022-08-15T01:19:00.740Z,996.65
2022-08-15T01:19:59.737Z,996.67
2022-08-15T01:20:59.719Z,996.63
2022-08-15T01:22:04.278Z,996.62
2022-08-15T01:23:00.700Z,996.57
2022-08-15T01:23:59.690Z,996.60
2022-08-15T01:25:25.513Z,996.61
2022-08-15T01:26:41.150Z,996.59
2022-08-15T01:27:00.672Z,996.55
2022-08-15T01:27:59.641Z,996.55
2022-08-15T01:28:59.634Z,996.52
2022-08-15T01:29:59.626Z,996.56
2022-08-15T01:31:02.445Z,996.53
2022-08-15T01:31:59.622Z,996.54
2022-08-15T01:32:59.592Z,996.51
2022-08-15T01:33:59.585Z,996.52
2022-08-15T01:34:59.565Z,996.50
2022-08-15T01:35:59.556Z,996.49
2022-08-15T01:36:59.565Z,996.49
2022-08-15T01:37:59.533Z,996.50
2022-08-15T01:39:07.957Z,996.48
2022-08-15T01:40:00.675Z,996.48
2022-08-15T01:40:59.532Z,996.47
2022-08-15T01:41:59.495Z,996.47
2022-08-15T01:42:59.488Z,996.48
2022-08-15T01:43:59.465Z,996.50
2022-08-15T01:45:00.830Z,996.48
2022-08-15T01:45:59.478Z,996.46
2022-08-15T01:46:59.436Z,996.45
2022-08-15T01:48:02.141Z,996.47
2022-08-15T01:49:00.417Z,996.46
2022-08-15T01:49:59.831Z,996.49
2022-08-15T01:50:59.425Z,996.43
2022-08-15T01:51:59.379Z,996.46
2022-08-15T01:53:09.627Z,996.47
2022-08-15T01:54:00.360Z,996.49
2022-08-15T01:55:05.170Z,996.50
2022-08-15T01:56:00.360Z,996.50
2022-08-15T01:56:59.350Z,996.49
2022-08-15T01:57:59.312Z,996.49
2022-08-15T01:58:59.313Z,996.49
2022-08-15T01:59:59.300Z,996.48
2022-08-15T02:00:59.333Z,996.48
2022-08-15T02:02:00.053Z,996.51
2022-08-15T02:02:59.602Z,996.52
2022-08-15T02:03:59.253Z,996.47
2022-08-15T02:05:02.430Z,996.48
2022-08-15T02:05:59.232Z,996.46
2022-08-15T02:06:59.242Z,996.47
2022-08-15T02:08:34.114Z,996.42
2022-08-15T02:09:00.206Z,996.41
2022-08-15T02:09:59.192Z,996.38
2022-08-15T02:11:00.183Z,996.40
2022-08-15T02:12:02.049Z,996.36
2022-08-15T02:13:12.722Z,996.37
2022-08-15T02:14:00.163Z,996.38
2022-08-15T02:14:59.142Z,996.37
2022-08-15T02:15:59.124Z,996.36
2022-08-15T02:16:59.116Z,996.36
2022-08-15T02:17:59.124Z,996.40
2022-08-15T02:18:59.412Z,996.42
2022-08-15T02:19:59.075Z,996.48
2022-08-15T02:20:59.066Z,996.47
2022-08-15T02:21:59.057Z,996.47
2022-08-15T02:22:59.048Z,996.40
2022-08-15T02:23:59.057Z,996.45
2022-08-15T02:24:59.242Z,996.48
2022-08-15T02:25:59.016Z,996.48
2022-08-15T02:26:59.008Z,996.40
2022-08-15T02:27:58.988Z,996.33
2022-08-15T02:28:58.999Z,996.35
2022-08-15T02:29:59.978Z,996.32
2022-08-15T02:30:58.968Z,996.32
2022-08-15T02:31:58.949Z,996.44
2022-08-15T02:32:59.619Z,996.39
2022-08-15T02:33:58.949Z,996.32
2022-08-15T02:34:58.923Z,996.37
2022-08-15T02:35:58.900Z,996.38
2022-08-15T02:36:58.899Z,996.44
2022-08-15T02:38:00.083Z,996.44
2022-08-15T02:38:58.880Z,996.33
2022-08-15T02:40:46.000Z,996.35
2022-08-15T02:40:59.876Z,996.32
2022-08-15T02:41:58.841Z,996.31
2022-08-15T02:42:58.834Z,996.34
2022-08-15T02:43:58.824Z,996.35
2022-08-15T02:44:58.832Z,996.37
2022-08-15T02:46:27.971Z,996.33
2022-08-15T02:47:03.414Z,996.34
2022-08-15T02:47:59.773Z,996.32
2022-08-15T02:48:58.764Z,996.28
2022-08-15T02:49:58.784Z,996.38
2022-08-15T02:50:58.743Z,996.39
2022-08-15T02:51:58.735Z,996.38
2022-08-15T02:52:59.723Z,996.44
2022-08-15T02:53:58.705Z,996.39
2022-08-15T02:55:02.545Z,996.38
2022-08-15T02:55:58.684Z,996.43
2022-08-15T02:56:58.678Z,996.45
2022-08-15T02:58:04.728Z,996.44
2022-08-15T02:58:59.658Z,996.51
2022-08-15T02:59:58.675Z,996.48
2022-08-15T03:01:08.230Z,996.45
2022-08-15T03:01:59.657Z,996.48
2022-08-15T03:02:58.627Z,996.48
2022-08-15T03:03:58.607Z,996.47
2022-08-15T03:04:58.589Z,996.48
2022-08-15T03:05:58.607Z,996.44
2022-08-15T03:06:58.929Z,996.44
2022-08-15T03:08:06.344Z,996.44
2022-08-15T03:08:58.554Z,996.39
2022-08-15T03:09:58.579Z,996.40
2022-08-15T03:10:58.545Z,996.35
2022-08-15T03:11:58.614Z,996.35
2022-08-15T03:12:58.526Z,996.32
2022-08-15T03:13:58.495Z,996.33
2022-08-15T03:14:58.477Z,996.28
2022-08-15T03:15:58.870Z,996.27
2022-08-15T03:16:58.457Z,996.26
2022-08-15T03:17:58.477Z,996.25
2022-08-15T03:18:58.438Z,996.26
2022-08-15T03:19:58.794Z,996.29
2022-08-15T03:20:58.416Z,996.32
2022-08-15T03:21:58.407Z,996.29
2022-08-15T03:22:58.394Z,996.33
2022-08-15T03:23:58.408Z,996.35
2022-08-15T03:24:58.369Z,996.29
2022-08-15T03:25:58.367Z,996.31
2022-08-15T03:26:58.353Z,996.32
2022-08-15T03:27:58.340Z,996.32
2022-08-15T03:29:01.999Z,996.24
2022-08-15T03:29:59.321Z,996.31
2022-08-15T03:30:58.308Z,996.26
2022-08-15T03:31:58.299Z,996.24
2022-08-15T03:32:58.281Z,996.26
2022-08-15T03:33:58.607Z,996.29
2022-08-15T03:34:58.262Z,996.27
2022-08-15T03:35:58.254Z,996.26
2022-08-15T03:36:58.251Z,996.29
2022-08-15T03:37:59.868Z,996.31
2022-08-15T03:38:59.654Z,996.32
2022-08-15T03:39:58.423Z,996.40
2022-08-15T03:40:58.203Z,996.38
2022-08-15T03:41:58.192Z,996.43
2022-08-15T03:43:02.240Z,996.42
2022-08-15T03:43:59.191Z,996.39
2022-08-15T03:44:58.153Z,996.38
2022-08-15T03:45:58.824Z,996.36
2022-08-15T03:46:58.593Z,996.33
2022-08-15T03:47:58.125Z,996.33
2022-08-15T03:48:58.922Z,996.32
2022-08-15T03:50:22.554Z,996.30
2022-08-15T03:50:59.328Z,996.32
2022-08-15T03:51:58.086Z,996.23
2022-08-15T03:52:58.066Z,996.18
2022-08-15T03:53:58.085Z,996.16
2022-08-15T03:54:58.045Z,996.13
2022-08-15T03:55:59.327Z,996.11
2022-08-15T03:56:58.026Z,996.10
2022-08-15T03:58:01.802Z,996.06
2022-08-15T03:58:59.027Z,996.07
2022-08-15T03:59:57.997Z,996.09
2022-08-15T04:00:59.065Z,996.13
2022-08-15T04:02:00.928Z,996.11
2022-08-15T04:02:57.960Z,996.14
2022-08-15T04:03:57.979Z,996.16
2022-08-15T04:04:59.402Z,996.17
2022-08-15T04:05:57.937Z,996.22
2022-08-15T04:07:00.237Z,996.27
2022-08-15T04:07:57.912Z,996.20
2022-08-15T04:09:04.724Z,996.14
2022-08-15T04:09:58.909Z,996.12
2022-08-15T04:10:57.874Z,996.13
2022-08-15T04:11:57.870Z,996.13
2022-08-15T04:12:58.582Z,996.10
2022-08-15T04:13:57.850Z,996.08
2022-08-15T04:14:57.843Z,996.09
2022-08-15T04:17:00.986Z,996.09
2022-08-15T04:17:03.131Z,996.08
2022-08-15T04:18:00.606Z,996.11
2022-08-15T04:18:59.495Z,996.13
2022-08-15T04:19:57.780Z,996.09
2022-08-15T04:20:57.765Z,996.12
2022-08-15T04:21:57.783Z,996.14
2022-08-15T04:22:57.876Z,996.13
2022-08-15T04:23:57.733Z,996.14
2022-08-15T04:24:57.731Z,996.09
2022-08-15T04:25:57.715Z,996.09
2022-08-15T04:27:00.931Z,996.13
2022-08-15T04:27:57.692Z,996.15
2022-08-15T04:28:58.626Z,996.19
2022-08-15T04:29:58.381Z,996.19
2022-08-15T04:30:57.654Z,996.18
2022-08-15T04:31:57.646Z,996.18
2022-08-15T04:33:00.016Z,996.20
2022-08-15T04:34:45.198Z,996.20
2022-08-15T04:34:58.615Z,996.19
2022-08-15T04:35:57.612Z,996.20
2022-08-15T04:36:57.952Z,996.23
2022-08-15T04:37:57.585Z,996.23
2022-08-15T04:38:57.587Z,996.25
2022-08-15T04:39:57.611Z,996.24
2022-08-15T04:41:18.944Z,996.22
2022-08-15T04:41:58.537Z,996.24
2022-08-15T04:42:57.693Z,996.23
2022-08-15T04:43:57.518Z,996.22
2022-08-15T04:44:57.510Z,996.20
2022-08-15T04:45:57.499Z,996.21
2022-08-15T04:46:57.479Z,996.24
2022-08-15T04:47:57.478Z,996.23
2022-08-15T04:48:57.481Z,996.23
2022-08-15T04:49:57.457Z,996.22
2022-08-15T04:50:57.443Z,996.22
2022-08-15T04:51:57.437Z,996.23
2022-08-15T04:52:57.418Z,996.21
2022-08-15T04:53:57.433Z,996.17
2022-08-15T04:54:57.926Z,996.19
2022-08-15T04:56:00.611Z,996.18
2022-08-15T04:56:58.988Z,996.19
2022-08-15T04:57:57.371Z,996.17
2022-08-15T04:59:05.613Z,996.21
2022-08-15T05:00:04.465Z,996.18
2022-08-15T05:01:02.458Z,996.20
2022-08-15T05:02:04.432Z,996.17
2022-08-15T05:02:58.414Z,996.17
2022-08-15T05:03:57.575Z,996.16
2022-08-15T05:04:57.290Z,996.19
2022-08-15T05:05:57.280Z,996.20
2022-08-15T05:06:57.266Z,996.23
2022-08-15T05:07:59.063Z,996.21
2022-08-15T05:08:57.275Z,996.23
2022-08-15T05:09:59.864Z,996.24
2022-08-15T05:10:58.224Z,996.26
2022-08-15T05:12:01.554Z,996.27
2022-08-15T05:12:58.207Z,996.27
2022-08-15T05:13:57.226Z,996.28
2022-08-15T05:14:57.177Z,996.26
2022-08-15T05:15:57.175Z,996.25
2022-08-15T05:16:57.156Z,996.26
2022-08-15T05:17:58.351Z,996.19
2022-08-15T05:18:57.138Z,996.18
2022-08-15T05:19:57.156Z,996.13
2022-08-15T05:20:57.117Z,996.12
2022-08-15T05:21:57.108Z,996.16
2022-08-15T05:23:00.603Z,996.15
2022-08-15T05:23:57.087Z,996.17
2022-08-15T05:24:59.008Z,996.15
2022-08-15T05:25:57.089Z,996.15
2022-08-15T05:26:58.622Z,996.17
2022-08-15T05:27:58.047Z,996.21
2022-08-15T05:28:58.182Z,996.18
2022-08-15T05:29:57.022Z,996.19
2022-08-15T05:30:58.124Z,996.20
2022-08-15T05:31:56.999Z,996.18
2022-08-15T05:32:56.980Z,996.19
2022-08-15T05:33:58.349Z,996.21
2022-08-15T05:34:56.960Z,996.21
2022-08-15T05:35:56.972Z,996.24
2022-08-15T05:36:56.965Z,996.24
2022-08-15T05:37:56.935Z,996.26
2022-08-15T05:38:56.924Z,996.26
2022-08-15T05:39:56.956Z,996.26
2022-08-15T05:40:56.900Z,996.29
2022-08-15T05:41:56.904Z,996.27
2022-08-15T05:42:56.902Z,996.26
2022-08-15T05:43:56.865Z,996.28
2022-08-15T05:44:56.855Z,996.27
2022-08-15T05:45:56.844Z,996.24
2022-08-15T05:46:56.835Z,996.24
2022-08-15T05:47:56.844Z,996.27
2022-08-15T05:48:56.815Z,996.26
2022-08-15T05:49:58.122Z,996.26
2022-08-15T05:50:59.952Z,996.23
2022-08-15T05:51:56.775Z,996.23
2022-08-15T05:52:57.126Z,996.27
2022-08-15T05:53:56.756Z,996.22
2022-08-15T05:54:56.747Z,996.22
2022-08-15T05:55:56.736Z,996.24
2022-08-15T05:56:56.750Z,996.24
2022-08-15T05:57:56.728Z,996.23
2022-08-15T05:58:56.703Z,996.21
2022-08-15T05:59:56.689Z,996.23
2022-08-15T06:00:56.695Z,996.21
2022-08-15T06:02:35.205Z,996.21
2022-08-15T06:02:58.693Z,996.24
2022-08-15T06:03:56.649Z,996.27
2022-08-15T06:04:56.641Z,996.22
2022-08-15T06:05:56.630Z,996.25
2022-08-15T06:06:56.618Z,996.28
2022-08-15T06:07:59.927Z,996.27
2022-08-15T06:09:01.340Z,996.25
2022-08-15T06:09:57.582Z,996.31
2022-08-15T06:10:56.572Z,996.27
2022-08-15T06:11:56.559Z,996.24
2022-08-15T06:12:56.561Z,996.24
2022-08-15T06:13:56.565Z,996.25
2022-08-15T06:14:56.534Z,996.22
2022-08-15T06:15:56.522Z,996.22
2022-08-15T06:16:56.610Z,996.27
2022-08-15T06:17:56.494Z,996.22
2022-08-15T06:18:56.486Z,996.22
2022-08-15T06:19:56.493Z,996.23
2022-08-15T06:20:56.466Z,996.21
2022-08-15T06:21:56.456Z,996.26
2022-08-15T06:22:56.444Z,996.27
2022-08-15T06:23:56.430Z,996.27
2022-08-15T06:24:56.436Z,996.24
2022-08-15T06:25:56.414Z,996.29
2022-08-15T06:26:56.397Z,996.26
2022-08-15T06:27:57.861Z,996.31
2022-08-15T06:28:56.376Z,996.31
2022-08-15T06:29:56.385Z,996.33
2022-08-15T06:30:56.463Z,996.37
2022-08-15T06:31:56.347Z,996.39
2022-08-15T06:32:57.642Z,996.36
2022-08-15T06:34:04.353Z,996.37
2022-08-15T06:34:57.337Z,996.35
2022-08-15T06:35:57.312Z,996.34
2022-08-15T06:36:56.288Z,996.34
2022-08-15T06:37:59.726Z,996.36
2022-08-15T06:38:57.268Z,996.40
2022-08-15T06:39:57.545Z,996.41
2022-08-15T06:40:56.644Z,996.42
2022-08-15T06:41:56.231Z,996.48
2022-08-15T06:42:56.232Z,996.42
2022-08-15T06:43:57.230Z,996.46
2022-08-15T06:44:56.202Z,996.51
2022-08-15T06:45:56.213Z,996.47
2022-08-15T06:46:57.093Z,996.47
2022-08-15T06:47:56.173Z,996.43
2022-08-15T06:49:05.267Z,996.48
2022-08-15T06:49:57.144Z,996.46
2022-08-15T06:50:56.141Z,996.54
2022-08-15T06:51:56.154Z,996.54
2022-08-15T06:52:59.099Z,996.54
2022-08-15T06:53:56.671Z,996.50
2022-08-15T06:54:56.109Z,996.50
2022-08-15T06:55:56.076Z,996.46
2022-08-15T06:56:56.096Z,996.48
2022-08-15T06:57:56.056Z,996.50
2022-08-15T06:58:57.344Z,996.51
2022-08-15T06:59:57.033Z,996.54
2022-08-15T07:00:56.065Z,996.55
2022-08-15T07:02:15.922Z,996.55
2022-08-15T07:02:57.404Z,996.58
2022-08-15T07:03:55.997Z,996.56
2022-08-15T07:04:55.987Z,996.59
2022-08-15T07:05:56.077Z,996.50
2022-08-15T07:06:55.965Z,996.48
2022-08-15T07:07:56.001Z,996.50
2022-08-15T07:08:55.936Z,996.55
2022-08-15T07:09:55.934Z,996.55
2022-08-15T07:10:55.922Z,996.51
2022-08-15T07:11:57.060Z,996.58
2022-08-15T07:12:55.918Z,996.58
2022-08-15T07:14:04.032Z,996.57
2022-08-15T07:14:56.879Z,996.56
2022-08-15T07:15:55.859Z,996.57
2022-08-15T07:16:55.880Z,996.52
2022-08-15T07:17:59.177Z,996.55
2022-08-15T07:18:55.831Z,996.60
2022-08-15T07:19:58.219Z,996.61
2022-08-15T07:20:55.812Z,996.58
2022-08-15T07:21:55.799Z,996.60
2022-08-15T07:22:55.811Z,996.61
2022-08-15T07:23:55.774Z,996.60
2022-08-15T07:24:55.767Z,996.59
2022-08-15T07:25:56.755Z,996.58
2022-08-15T07:26:55.751Z,996.61
2022-08-15T07:27:55.753Z,996.57
2022-08-15T07:28:55.742Z,996.55
2022-08-15T07:29:56.883Z,996.54
2022-08-15T07:30:55.707Z,996.58
2022-08-15T07:32:04.383Z,996.53
2022-08-15T07:32:56.696Z,996.54
2022-08-15T07:33:56.620Z,996.52
2022-08-15T07:35:01.618Z,996.50
2022-08-15T07:35:56.666Z,996.48
2022-08-15T07:36:55.650Z,996.53
2022-08-15T07:37:55.627Z,996.55
2022-08-15T07:38:55.636Z,996.59
2022-08-15T07:39:55.672Z,996.60
2022-08-15T07:41:56.582Z,996.67
2022-08-15T07:42:59.561Z,996.69
2022-08-15T07:43:56.581Z,996.74
2022-08-15T07:44:55.555Z,996.86
2022-08-15T07:45:55.538Z,996.83
2022-08-15T07:46:57.777Z,996.98
2022-08-15T07:47:55.512Z,997.08
2022-08-15T07:48:55.531Z,997.05
2022-08-15T07:49:55.492Z,997.05
2022-08-15T07:50:55.490Z,997.02
2022-08-15T07:51:55.491Z,996.98
2022-08-15T07:52:55.619Z,996.95
2022-08-15T07:53:55.764Z,996.88
2022-08-15T07:54:55.468Z,996.89
2022-08-15T07:56:56.423Z,996.89
2022-08-15T07:57:55.412Z,996.96
2022-08-15T07:58:55.402Z,996.97
2022-08-15T08:00:38.521Z,997.02
2022-08-15T08:01:33.476Z,996.99
2022-08-15T08:01:56.417Z,996.99
2022-08-15T08:02:56.366Z,996.97
2022-08-15T08:03:55.344Z,996.97
2022-08-15T08:04:57.957Z,996.98
2022-08-15T08:05:56.326Z,997.04
2022-08-15T08:06:55.318Z,997.02
2022-08-15T08:07:55.535Z,997.06
2022-08-15T08:08:55.310Z,997.05
2022-08-15T08:09:56.306Z,997.04
2022-08-15T08:10:55.304Z,997.07
2022-08-15T08:11:55.267Z,997.09
2022-08-15T08:12:56.990Z,997.05
2022-08-15T08:13:55.238Z,996.99
2022-08-15T08:14:55.243Z,996.95
2022-08-15T08:16:08.357Z,996.97
2022-08-15T08:16:59.647Z,996.97
2022-08-15T08:17:56.462Z,996.98
2022-08-15T08:18:55.200Z,997.02
2022-08-15T08:19:55.180Z,997.01
2022-08-15T08:20:55.170Z,997.01
2022-08-15T08:21:55.409Z,996.95
2022-08-15T08:22:55.150Z,996.94
2022-08-15T08:23:55.148Z,996.95
2022-08-15T08:24:55.130Z,996.99
2022-08-15T08:26:07.148Z,996.87
2022-08-15T08:26:56.131Z,996.97
2022-08-15T08:27:55.274Z,996.97
2022-08-15T08:28:55.092Z,997.01
2022-08-15T08:29:55.109Z,997.08
2022-08-15T08:30:55.071Z,997.11
2022-08-15T08:31:57.892Z,997.09
2022-08-15T08:32:55.045Z,997.11
2022-08-15T08:33:55.799Z,997.06
2022-08-15T08:34:55.036Z,997.06
2022-08-15T08:35:55.015Z,997.08
2022-08-15T08:36:55.033Z,997.06
2022-08-15T08:37:55.024Z,997.06
2022-08-15T08:39:04.990Z,997.09
2022-08-15T08:39:59.517Z,997.07
2022-08-15T08:40:55.965Z,997.04
2022-08-15T08:41:55.720Z,997.03
2022-08-15T08:42:59.033Z,996.96
2022-08-15T08:43:55.037Z,996.96
2022-08-15T08:44:58.294Z,996.97
2022-08-15T08:45:54.914Z,996.95
2022-08-15T08:46:54.936Z,996.97
2022-08-15T08:47:54.888Z,996.97
2022-08-15T08:48:54.924Z,996.95
2022-08-15T08:50:31.411Z,996.94
2022-08-15T08:50:55.867Z,996.95
2022-08-15T08:51:55.024Z,996.88
2022-08-15T08:52:55.506Z,996.88
2022-08-15T08:53:56.677Z,996.89
2022-08-15T08:55:00.979Z,996.93
2022-08-15T08:55:55.820Z,996.96
2022-08-15T08:56:57.909Z,996.95
2022-08-15T08:57:54.791Z,996.91
2022-08-15T08:58:54.808Z,996.95
2022-08-15T08:59:54.771Z,996.95
2022-08-15T09:00:54.761Z,996.88
2022-08-15T09:01:54.807Z,996.86
2022-08-15T09:02:57.298Z,996.86
2022-08-15T09:03:54.754Z,996.89
2022-08-15T09:04:54.721Z,996.85
2022-08-15T09:05:54.713Z,996.91
2022-08-15T09:06:54.712Z,996.82
2022-08-15T09:07:54.684Z,996.84
2022-08-15T09:09:01.750Z,996.88
2022-08-15T09:09:57.210Z,996.96
2022-08-15T09:10:54.660Z,996.84
2022-08-15T09:11:54.649Z,996.86
2022-08-15T09:12:54.631Z,996.86
2022-08-15T09:13:56.289Z,996.86
2022-08-15T09:14:59.425Z,996.89
2022-08-15T09:15:55.605Z,996.88
2022-08-15T09:17:12.645Z,996.98
2022-08-15T09:17:58.260Z,996.89
2022-08-15T09:18:55.627Z,996.91
2022-08-15T09:19:54.582Z,996.88
2022-08-15T09:20:54.731Z,996.95
2022-08-15T09:21:54.540Z,996.94
2022-08-15T09:22:54.532Z,996.94
2022-08-15T09:23:54.522Z,996.95
2022-08-15T09:25:06.213Z,996.99
2022-08-15T09:25:55.495Z,997.04
2022-08-15T09:26:54.494Z,996.99
2022-08-15T09:27:57.487Z,996.92
2022-08-15T09:28:55.195Z,996.96
2022-08-15T09:29:56.943Z,996.94
2022-08-15T09:30:57.745Z,996.92
2022-08-15T09:32:00.519Z,996.92
2022-08-15T09:32:55.434Z,996.84
2022-08-15T09:33:55.470Z,996.86
2022-08-15T09:34:54.405Z,996.90
2022-08-15T09:35:54.426Z,996.90
2022-08-15T09:36:54.387Z,996.86
2022-08-15T09:37:54.611Z,996.90
2022-08-15T09:38:54.374Z,996.85
2022-08-15T09:39:54.392Z,996.86
2022-08-15T09:41:12.456Z,996.85
2022-08-15T09:41:57.204Z,996.95
2022-08-15T09:43:06.683Z,996.89
2022-08-15T09:43:55.313Z,996.90
2022-08-15T09:44:57.374Z,996.91
2022-08-15T09:45:54.299Z,996.89
2022-08-15T09:46:54.289Z,996.90
2022-08-15T09:47:55.866Z,996.91
2022-08-15T09:48:54.261Z,996.89
2022-08-15T09:49:54.263Z,996.90
2022-08-15T09:50:55.609Z,996.86
2022-08-15T09:51:54.238Z,996.90
2022-08-15T09:52:54.221Z,996.91
2022-08-15T09:54:01.128Z,996.90
2022-08-15T09:54:55.201Z,996.94
2022-08-15T09:55:54.583Z,996.92
2022-08-15T09:56:54.187Z,996.87
2022-08-15T09:57:54.433Z,996.86
2022-08-15T09:58:55.446Z,996.88
2022-08-15T09:59:54.153Z,996.91
2022-08-15T10:00:54.288Z,996.92
2022-08-15T10:01:56.302Z,996.86
2022-08-15T10:02:54.115Z,996.94
2022-08-15T10:03:54.134Z,996.89
2022-08-15T10:04:54.095Z,996.91
2022-08-15T10:05:54.097Z,996.92
2022-08-15T10:06:54.077Z,996.95
2022-08-15T10:07:54.070Z,996.95
2022-08-15T10:08:54.056Z,996.98
2022-08-15T10:09:54.078Z,996.96
2022-08-15T10:10:54.039Z,996.98
2022-08-15T10:12:00.951Z,997.00
2022-08-15T10:12:55.020Z,997.08
2022-08-15T10:13:54.009Z,997.09
2022-08-15T10:14:54.023Z,997.16
2022-08-15T10:15:53.990Z,997.13
2022-08-15T10:16:54.400Z,997.18
2022-08-15T10:17:58.613Z,997.19
2022-08-15T10:18:54.950Z,997.24
2022-08-15T10:20:18.644Z,997.26
2022-08-15T10:20:54.931Z,997.33
2022-08-15T10:21:53.966Z,997.34
2022-08-15T10:22:54.912Z,997.44
2022-08-15T10:23:59.210Z,997.44
2022-08-15T10:24:54.942Z,997.46
2022-08-15T10:25:53.893Z,997.52
2022-08-15T10:26:57.407Z,997.50
2022-08-15T10:27:54.862Z,997.58
2022-08-15T10:28:54.368Z,997.62
2022-08-15T10:29:54.929Z,997.64
2022-08-15T10:30:53.863Z,997.66
2022-08-15T10:32:34.198Z,997.71
2022-08-15T10:33:00.244Z,997.78
2022-08-15T10:33:58.638Z,997.76
2022-08-15T10:34:57.619Z,997.77
2022-08-15T10:35:53.783Z,997.79
2022-08-15T10:36:53.784Z,997.76
2022-08-15T10:37:55.470Z,997.70
2022-08-15T10:38:53.744Z,997.76
2022-08-15T10:39:53.821Z,997.76
2022-08-15T10:40:53.727Z,997.73
2022-08-15T10:41:53.746Z,997.77
2022-08-15T10:42:53.698Z,997.78
2022-08-15T10:43:55.396Z,997.74
2022-08-15T10:44:53.678Z,997.76
2022-08-15T10:45:55.841Z,997.79
2022-08-15T10:46:59.220Z,997.77
2022-08-15T10:48:02.131Z,997.78
2022-08-15T10:48:54.638Z,997.77
2022-08-15T10:49:59.410Z,997.79
2022-08-15T10:50:54.708Z,997.79
2022-08-15T10:51:53.611Z,997.79
2022-08-15T10:52:53.619Z,997.82
2022-08-15T10:53:53.591Z,997.82
2022-08-15T10:54:53.581Z,997.81
2022-08-15T10:55:57.816Z,997.81
2022-08-15T10:57:05.524Z,997.80
2022-08-15T10:57:54.586Z,997.76
2022-08-15T10:58:53.531Z,997.74
2022-08-15T10:59:57.484Z,997.79
2022-08-15T11:00:53.719Z,997.76
2022-08-15T11:01:53.581Z,997.76
2022-08-15T11:03:10.816Z,997.76
2022-08-15T11:04:49.143Z,997.77
2022-08-15T11:04:59.549Z,997.78
2022-08-15T11:05:54.469Z,997.71
2022-08-15T11:06:55.472Z,997.69
2022-08-15T11:07:58.181Z,997.69
2022-08-15T11:08:54.456Z,997.64
2022-08-15T11:09:53.416Z,997.69
2022-08-15T11:10:53.406Z,997.70
2022-08-15T11:11:55.116Z,997.67
2022-08-15T11:12:53.666Z,997.66
2022-08-15T11:13:53.375Z,997.66
2022-08-15T11:14:53.385Z,997.67
2022-08-15T11:15:53.356Z,997.64
2022-08-15T11:16:56.746Z,997.68
2022-08-15T11:17:53.356Z,997.63
2022-08-15T11:18:58.284Z,997.66
2022-08-15T11:20:06.899Z,997.65
2022-08-15T11:20:54.312Z,997.63
2022-08-15T11:21:53.289Z,997.63
2022-08-15T11:22:54.157Z,997.62
2022-08-15T11:23:53.299Z,997.62
2022-08-15T11:24:58.298Z,997.64
2022-08-15T11:25:54.267Z,997.66
2022-08-15T11:26:53.422Z,997.64
2022-08-15T11:27:57.530Z,997.67
2022-08-15T11:28:56.206Z,997.66
2022-08-15T11:29:53.873Z,997.73
2022-08-15T11:30:53.210Z,997.69
2022-08-15T11:31:56.317Z,997.70
2022-08-15T11:32:55.703Z,997.68
2022-08-15T11:33:53.163Z,997.72
2022-08-15T11:34:56.783Z,997.71
2022-08-15T11:35:54.155Z,997.75
2022-08-15T11:36:53.123Z,997.77
2022-08-15T11:37:54.406Z,997.76
2022-08-15T11:39:15.862Z,997.77
2022-08-15T11:39:54.142Z,997.82
2022-08-15T11:40:53.106Z,997.80
2022-08-15T11:41:54.425Z,997.82
2022-08-15T11:42:58.654Z,997.83
2022-08-15T11:44:53.035Z,997.85
2022-08-15T11:45:53.027Z,997.86
2022-08-15T11:46:53.036Z,997.88
2022-08-15T11:47:53.016Z,997.84
2022-08-15T11:48:52.994Z,997.83
2022-08-15T11:49:52.988Z,997.88
2022-08-15T11:50:53.755Z,997.89
2022-08-15T11:52:38.915Z,997.92
2022-08-15T11:52:53.979Z,997.83
2022-08-15T11:53:52.939Z,997.85
2022-08-15T11:54:52.928Z,997.90
2022-08-15T11:55:52.928Z,997.84
2022-08-15T11:56:55.858Z,997.86
2022-08-15T11:57:53.064Z,997.83
2022-08-15T11:59:03.174Z,997.85
2022-08-15T11:59:57.489Z,997.89
2022-08-15T12:00:52.872Z,997.87
2022-08-15T12:01:52.870Z,997.84
2022-08-15T12:03:03.374Z,997.85
2022-08-15T12:05:42.500Z,997.81
2022-08-15T12:06:08.338Z,997.84
2022-08-15T12:06:56.118Z,997.85
2022-08-15T12:07:52.803Z,997.85
2022-08-15T12:08:52.813Z,997.86
2022-08-15T12:09:52.784Z,997.92
2022-08-15T12:10:55.478Z,997.89
2022-08-15T12:11:53.006Z,997.93
2022-08-15T12:12:52.745Z,997.93
2022-08-15T12:13:11.902Z,997.84
2022-08-15T12:13:52.826Z,997.90
2022-08-15T12:14:53.102Z,997.93
2022-08-15T12:15:54.786Z,997.94
2022-08-15T12:16:56.384Z,997.91
2022-08-15T12:17:55.998Z,997.98
2022-08-15T12:18:55.069Z,997.97
2022-08-15T12:20:26.284Z,998.04
2022-08-15T12:20:53.680Z,998.07
2022-08-15T12:21:59.210Z,998.08
2022-08-15T12:23:00.487Z,998.08
2022-08-15T12:23:54.451Z,998.12
2022-08-15T12:24:52.616Z,998.15
2022-08-15T12:25:54.884Z,998.15
2022-08-15T12:27:04.668Z,998.14
2022-08-15T12:27:56.834Z,998.13
2022-08-15T12:28:55.601Z,998.15
2022-08-15T12:29:52.563Z,998.18
2022-08-15T12:30:52.571Z,998.13